sensor_id;sensor_type;location;lat;lon;timestamp;temperature;humidity
16505;HTU21D;8365;51.030;4.696;2023-06-22T00:02:23;23.00;96.64
16505;HTU21D;8365;51.030;4.696;2023-06-22T00:04:56;23.07;95.81
16505;HTU21D;8365;51.030;4.696;2023-06-22T00:07:26;23.11;96.23
16505;HTU21D;8365;51.030;4.696;2023-06-22T00:09:56;23.05;97.11
16505;HTU21D;8365;51.030;4.696;2023-06-22T00:12:27;23.00;96.23
16505;HTU21D;8365;51.030;4.696;2023-06-22T00:14:57;23.06;96.26
16505;HTU21D;8365;51.030;4.696;2023-06-22T00:17:28;23.05;96.61
16505;HTU21D;8365;51.030;4.696;2023-06-22T00:19:58;23.07;96.46
16505;HTU21D;8365;51.030;4.696;2023-06-22T00:22:30;22.93;97.88
16505;HTU21D;8365;51.030;4.696;2023-06-22T00:25:00;22.90;99.08
16505;HTU21D;8365;51.030;4.696;2023-06-22T00:27:31;22.81;99.96
16505;HTU21D;8365;51.030;4.696;2023-06-22T00:30:02;22.57;101.48
16505;HTU21D;8365;51.030;4.696;2023-06-22T00:32:32;22.39;101.54
16505;HTU21D;8365;51.030;4.696;2023-06-22T00:35:03;22.31;101.82
16505;HTU21D;8365;51.030;4.696;2023-06-22T00:37:34;22.12;103.41
16505;HTU21D;8365;51.030;4.696;2023-06-22T00:40:06;22.13;102.76
16505;HTU21D;8365;51.030;4.696;2023-06-22T00:42:38;22.21;102.16
16505;HTU21D;8365;51.030;4.696;2023-06-22T00:45:09;22.27;101.57
16505;HTU21D;8365;51.030;4.696;2023-06-22T00:47:42;22.31;101.59
16505;HTU21D;8365;51.030;4.696;2023-06-22T00:50:20;22.28;101.76
16505;HTU21D;8365;51.030;4.696;2023-06-22T00:52:52;22.40;101.65
16505;HTU21D;8365;51.030;4.696;2023-06-22T00:55:24;22.37;102.06
16505;HTU21D;8365;51.030;4.696;2023-06-22T00:57:56;22.37;102.51
16505;HTU21D;8365;51.030;4.696;2023-06-22T01:00:27;22.46;102.54
16505;HTU21D;8365;51.030;4.696;2023-06-22T01:02:57;22.43;102.89
16505;HTU21D;8365;51.030;4.696;2023-06-22T01:05:28;22.44;102.20
16505;HTU21D;8365;51.030;4.696;2023-06-22T01:16:26;22.37;101.20
16505;HTU21D;8365;51.030;4.696;2023-06-22T01:19:04;22.37;101.60
16505;HTU21D;8365;51.030;4.696;2023-06-22T01:21:35;22.53;100.80
16505;HTU21D;8365;51.030;4.696;2023-06-22T01:24:15;22.54;101.12
16505;HTU21D;8365;51.030;4.696;2023-06-22T01:29:36;22.54;101.68
16505;HTU21D;8365;51.030;4.696;2023-06-22T01:32:08;22.57;101.46
16505;HTU21D;8365;51.030;4.696;2023-06-22T01:34:40;22.53;101.99
16505;HTU21D;8365;51.030;4.696;2023-06-22T01:37:11;22.47;102.87
16505;HTU21D;8365;51.030;4.696;2023-06-22T01:39:41;22.44;103.06
16505;HTU21D;8365;51.030;4.696;2023-06-22T01:42:12;22.31;104.19
16505;HTU21D;8365;51.030;4.696;2023-06-22T01:44:43;22.29;104.28
16505;HTU21D;8365;51.030;4.696;2023-06-22T01:47:17;22.31;104.12
16505;HTU21D;8365;51.030;4.696;2023-06-22T01:49:48;22.29;103.99
16505;HTU21D;8365;51.030;4.696;2023-06-22T01:52:22;22.23;104.52
16505;HTU21D;8365;51.030;4.696;2023-06-22T01:54:52;22.17;105.19
16505;HTU21D;8365;51.030;4.696;2023-06-22T01:57:23;22.14;103.89
16505;HTU21D;8365;51.030;4.696;2023-06-22T02:00:04;22.12;104.09
16505;HTU21D;8365;51.030;4.696;2023-06-22T02:05:17;22.04;104.50
16505;HTU21D;8365;51.030;4.696;2023-06-22T02:08:05;21.91;105.26
16505;HTU21D;8365;51.030;4.696;2023-06-22T02:10:38;21.80;105.69
16505;HTU21D;8365;51.030;4.696;2023-06-22T02:13:13;21.70;105.91
16505;HTU21D;8365;51.030;4.696;2023-06-22T02:15:47;21.76;105.67
16505;HTU21D;8365;51.030;4.696;2023-06-22T02:18:18;21.60;107.09
16505;HTU21D;8365;51.030;4.696;2023-06-22T02:20:48;21.59;107.40
16505;HTU21D;8365;51.030;4.696;2023-06-22T02:23:18;21.43;107.82
16505;HTU21D;8365;51.030;4.696;2023-06-22T02:25:49;21.40;107.61
16505;HTU21D;8365;51.030;4.696;2023-06-22T02:28:19;21.45;107.09
16505;HTU21D;8365;51.030;4.696;2023-06-22T02:30:50;21.42;107.75
16505;HTU21D;8365;51.030;4.696;2023-06-22T02:33:21;21.37;107.83
16505;HTU21D;8365;51.030;4.696;2023-06-22T02:35:53;21.40;107.20
16505;HTU21D;8365;51.030;4.696;2023-06-22T02:38:26;21.27;107.43
16505;HTU21D;8365;51.030;4.696;2023-06-22T02:40:57;21.22;107.66
16505;HTU21D;8365;51.030;4.696;2023-06-22T02:43:27;20.96;108.88
16505;HTU21D;8365;51.030;4.696;2023-06-22T02:45:58;20.93;108.91
16505;HTU21D;8365;51.030;4.696;2023-06-22T02:48:28;20.84;109.36
16505;HTU21D;8365;51.030;4.696;2023-06-22T02:50:59;20.83;108.72
16505;HTU21D;8365;51.030;4.696;2023-06-22T02:53:29;20.85;108.65
16505;HTU21D;8365;51.030;4.696;2023-06-22T02:56:02;20.91;107.93
16505;HTU21D;8365;51.030;4.696;2023-06-22T02:58:36;20.98;107.10
16505;HTU21D;8365;51.030;4.696;2023-06-22T03:01:08;20.95;107.22
16505;HTU21D;8365;51.030;4.696;2023-06-22T03:03:40;20.94;106.87
16505;HTU21D;8365;51.030;4.696;2023-06-22T03:06:11;21.00;106.86
16505;HTU21D;8365;51.030;4.696;2023-06-22T03:08:44;21.00;107.14
16505;HTU21D;8365;51.030;4.696;2023-06-22T03:11:14;20.83;108.85
16505;HTU21D;8365;51.030;4.696;2023-06-22T03:13:45;20.74;109.38
16505;HTU21D;8365;51.030;4.696;2023-06-22T03:16:16;20.75;109.52
16505;HTU21D;8365;51.030;4.696;2023-06-22T03:18:47;20.79;108.98
16505;HTU21D;8365;51.030;4.696;2023-06-22T03:21:17;20.84;108.99
16505;HTU21D;8365;51.030;4.696;2023-06-22T03:23:48;20.76;109.33
16505;HTU21D;8365;51.030;4.696;2023-06-22T03:26:19;20.86;108.55
16505;HTU21D;8365;51.030;4.696;2023-06-22T03:28:49;20.87;109.18
16505;HTU21D;8365;51.030;4.696;2023-06-22T03:31:20;20.87;109.04
16505;HTU21D;8365;51.030;4.696;2023-06-22T03:33:51;20.83;109.23
16505;HTU21D;8365;51.030;4.696;2023-06-22T03:36:22;20.84;109.48
16505;HTU21D;8365;51.030;4.696;2023-06-22T03:38:53;20.95;108.73
16505;HTU21D;8365;51.030;4.696;2023-06-22T03:41:23;20.98;109.17
16505;HTU21D;8365;51.030;4.696;2023-06-22T03:43:53;21.13;108.30
16505;HTU21D;8365;51.030;4.696;2023-06-22T03:46:24;21.18;107.90
16505;HTU21D;8365;51.030;4.696;2023-06-22T03:48:54;21.22;108.04
16505;HTU21D;8365;51.030;4.696;2023-06-22T03:51:25;21.24;107.68
16505;HTU21D;8365;51.030;4.696;2023-06-22T03:53:58;21.29;107.71
16505;HTU21D;8365;51.030;4.696;2023-06-22T03:56:28;21.22;108.01
16505;HTU21D;8365;51.030;4.696;2023-06-22T03:58:59;21.35;107.28
16505;HTU21D;8365;51.030;4.696;2023-06-22T04:01:29;21.37;107.60
16505;HTU21D;8365;51.030;4.696;2023-06-22T04:03:59;21.42;107.49
16505;HTU21D;8365;51.030;4.696;2023-06-22T04:06:30;21.35;107.76
16505;HTU21D;8365;51.030;4.696;2023-06-22T04:09:01;21.49;107.13
16505;HTU21D;8365;51.030;4.696;2023-06-22T04:11:31;21.42;107.50
16505;HTU21D;8365;51.030;4.696;2023-06-22T04:14:02;21.48;106.59
16505;HTU21D;8365;51.030;4.696;2023-06-22T04:16:32;21.45;107.28
16505;HTU21D;8365;51.030;4.696;2023-06-22T04:19:03;21.61;106.11
16505;HTU21D;8365;51.030;4.696;2023-06-22T04:21:33;21.54;106.40
16505;HTU21D;8365;51.030;4.696;2023-06-22T04:24:04;21.50;106.82
16505;HTU21D;8365;51.030;4.696;2023-06-22T04:26:35;21.55;107.08
16505;HTU21D;8365;51.030;4.696;2023-06-22T04:29:07;21.24;108.96
16505;HTU21D;8365;51.030;4.696;2023-06-22T04:31:39;21.06;109.65
16505;HTU21D;8365;51.030;4.696;2023-06-22T04:34:09;21.28;108.59
16505;HTU21D;8365;51.030;4.696;2023-06-22T04:36:43;21.44;107.76
16505;HTU21D;8365;51.030;4.696;2023-06-22T04:39:14;21.38;108.68
16505;HTU21D;8365;51.030;4.696;2023-06-22T04:41:45;21.53;107.34
16505;HTU21D;8365;51.030;4.696;2023-06-22T04:44:19;21.61;106.67
16505;HTU21D;8365;51.030;4.696;2023-06-22T04:46:57;21.53;107.21
16505;HTU21D;8365;51.030;4.696;2023-06-22T04:49:30;21.67;106.70
16505;HTU21D;8365;51.030;4.696;2023-06-22T04:52:06;21.77;106.61
16505;HTU21D;8365;51.030;4.696;2023-06-22T04:54:38;21.83;106.60
16505;HTU21D;8365;51.030;4.696;2023-06-22T04:57:09;21.85;107.10
16505;HTU21D;8365;51.030;4.696;2023-06-22T04:59:41;21.88;107.59
16505;HTU21D;8365;51.030;4.696;2023-06-22T05:02:12;21.92;106.96
16505;HTU21D;8365;51.030;4.696;2023-06-22T05:04:42;21.94;106.70
16505;HTU21D;8365;51.030;4.696;2023-06-22T05:07:12;22.12;105.72
16505;HTU21D;8365;51.030;4.696;2023-06-22T05:09:43;22.20;105.70
16505;HTU21D;8365;51.030;4.696;2023-06-22T05:12:13;22.29;105.26
16505;HTU21D;8365;51.030;4.696;2023-06-22T05:14:44;22.27;104.63
16505;HTU21D;8365;51.030;4.696;2023-06-22T05:17:14;22.42;105.11
16505;HTU21D;8365;51.030;4.696;2023-06-22T05:19:49;22.42;104.24
16505;HTU21D;8365;51.030;4.696;2023-06-22T05:22:19;22.36;104.41
16505;HTU21D;8365;51.030;4.696;2023-06-22T05:24:50;22.31;104.53
16505;HTU21D;8365;51.030;4.696;2023-06-22T05:27:23;22.16;106.27
16505;HTU21D;8365;51.030;4.696;2023-06-22T05:29:53;22.05;107.21
16505;HTU21D;8365;51.030;4.696;2023-06-22T05:32:24;21.77;108.59
16505;HTU21D;8365;51.030;4.696;2023-06-22T05:34:56;21.91;107.21
16505;HTU21D;8365;51.030;4.696;2023-06-22T05:37:28;21.94;107.38
16505;HTU21D;8365;51.030;4.696;2023-06-22T05:39:58;22.04;106.11
16505;HTU21D;8365;51.030;4.696;2023-06-22T05:42:29;21.97;107.08
16505;HTU21D;8365;51.030;4.696;2023-06-22T05:44:59;21.90;107.59
16505;HTU21D;8365;51.030;4.696;2023-06-22T05:47:30;21.95;108.43
16505;HTU21D;8365;51.030;4.696;2023-06-22T05:50:00;21.87;109.58
16505;HTU21D;8365;51.030;4.696;2023-06-22T05:52:31;22.02;108.06
16505;HTU21D;8365;51.030;4.696;2023-06-22T05:55:02;21.89;109.20
16505;HTU21D;8365;51.030;4.696;2023-06-22T05:57:33;21.88;109.46
16505;HTU21D;8365;51.030;4.696;2023-06-22T06:00:03;21.96;108.93
16505;HTU21D;8365;51.030;4.696;2023-06-22T06:02:38;21.93;109.95
16505;HTU21D;8365;51.030;4.696;2023-06-22T06:05:14;22.01;109.17
16505;HTU21D;8365;51.030;4.696;2023-06-22T06:07:45;22.04;108.87
16505;HTU21D;8365;51.030;4.696;2023-06-22T06:10:16;22.03;109.59
16505;HTU21D;8365;51.030;4.696;2023-06-22T06:12:46;22.08;110.47
16505;HTU21D;8365;51.030;4.696;2023-06-22T06:15:17;22.20;109.79
16505;HTU21D;8365;51.030;4.696;2023-06-22T06:17:54;22.23;109.01
16505;HTU21D;8365;51.030;4.696;2023-06-22T06:20:26;22.27;108.22
16505;HTU21D;8365;51.030;4.696;2023-06-22T06:22:58;22.41;107.65
16505;HTU21D;8365;51.030;4.696;2023-06-22T06:25:28;22.49;107.07
16505;HTU21D;8365;51.030;4.696;2023-06-22T06:27:59;22.60;106.54
16505;HTU21D;8365;51.030;4.696;2023-06-22T06:30:30;22.65;106.80
16505;HTU21D;8365;51.030;4.696;2023-06-22T06:33:00;22.77;106.07
16505;HTU21D;8365;51.030;4.696;2023-06-22T06:35:31;22.76;106.52
16505;HTU21D;8365;51.030;4.696;2023-06-22T06:38:01;22.83;106.17
16505;HTU21D;8365;51.030;4.696;2023-06-22T06:40:32;23.02;105.21
16505;HTU21D;8365;51.030;4.696;2023-06-22T06:43:03;23.10;105.66
16505;HTU21D;8365;51.030;4.696;2023-06-22T06:45:33;23.23;104.18
16505;HTU21D;8365;51.030;4.696;2023-06-22T06:48:04;23.24;102.79
16505;HTU21D;8365;51.030;4.696;2023-06-22T06:50:35;23.14;103.03
16505;HTU21D;8365;51.030;4.696;2023-06-22T06:53:06;23.24;101.45
16505;HTU21D;8365;51.030;4.696;2023-06-22T06:55:36;23.30;102.15
16505;HTU21D;8365;51.030;4.696;2023-06-22T06:58:07;23.34;103.05
16505;HTU21D;8365;51.030;4.696;2023-06-22T07:00:42;23.42;102.20
16505;HTU21D;8365;51.030;4.696;2023-06-22T07:03:13;23.56;100.99
16505;HTU21D;8365;51.030;4.696;2023-06-22T07:05:44;23.44;101.89
16505;HTU21D;8365;51.030;4.696;2023-06-22T07:08:14;23.53;101.64
16505;HTU21D;8365;51.030;4.696;2023-06-22T07:10:45;23.21;104.29
16505;HTU21D;8365;51.030;4.696;2023-06-22T07:13:15;23.46;102.29
16505;HTU21D;8365;51.030;4.696;2023-06-22T07:15:45;23.66;101.33
16505;HTU21D;8365;51.030;4.696;2023-06-22T07:18:16;23.62;101.91
16505;HTU21D;8365;51.030;4.696;2023-06-22T07:20:46;23.65;102.72
16505;HTU21D;8365;51.030;4.696;2023-06-22T07:23:20;23.81;101.92
16505;HTU21D;8365;51.030;4.696;2023-06-22T07:25:50;23.60;101.80
16505;HTU21D;8365;51.030;4.696;2023-06-22T07:28:20;23.64;101.89
16505;HTU21D;8365;51.030;4.696;2023-06-22T07:30:51;23.56;102.25
16505;HTU21D;8365;51.030;4.696;2023-06-22T07:33:24;23.81;101.18
16505;HTU21D;8365;51.030;4.696;2023-06-22T07:35:55;23.81;100.96
16505;HTU21D;8365;51.030;4.696;2023-06-22T07:38:25;23.79;101.59
16505;HTU21D;8365;51.030;4.696;2023-06-22T07:40:58;23.91;101.03
16505;HTU21D;8365;51.030;4.696;2023-06-22T07:43:29;23.87;100.82
16505;HTU21D;8365;51.030;4.696;2023-06-22T07:46:00;23.89;100.42
16505;HTU21D;8365;51.030;4.696;2023-06-22T07:48:30;23.83;101.15
16505;HTU21D;8365;51.030;4.696;2023-06-22T07:51:01;24.04;100.43
16505;HTU21D;8365;51.030;4.696;2023-06-22T07:53:31;23.86;101.23
16505;HTU21D;8365;51.030;4.696;2023-06-22T07:56:02;23.91;100.12
16505;HTU21D;8365;51.030;4.696;2023-06-22T07:58:37;23.69;101.22
16505;HTU21D;8365;51.030;4.696;2023-06-22T08:01:07;23.64;102.26
16505;HTU21D;8365;51.030;4.696;2023-06-22T08:03:38;23.72;101.94
16505;HTU21D;8365;51.030;4.696;2023-06-22T08:06:09;23.92;100.11
16505;HTU21D;8365;51.030;4.696;2023-06-22T08:08:40;23.94;99.98
16505;HTU21D;8365;51.030;4.696;2023-06-22T08:11:10;23.96;99.34
16505;HTU21D;8365;51.030;4.696;2023-06-22T08:13:41;23.99;98.51
16505;HTU21D;8365;51.030;4.696;2023-06-22T08:16:11;23.75;98.80
16505;HTU21D;8365;51.030;4.696;2023-06-22T08:18:45;23.83;97.22
16505;HTU21D;8365;51.030;4.696;2023-06-22T08:21:15;23.59;98.06
16505;HTU21D;8365;51.030;4.696;2023-06-22T08:23:47;23.52;98.03
16505;HTU21D;8365;51.030;4.696;2023-06-22T08:26:20;23.70;97.68
16505;HTU21D;8365;51.030;4.696;2023-06-22T08:28:52;23.65;97.74
16505;HTU21D;8365;51.030;4.696;2023-06-22T08:31:22;23.62;97.63
16505;HTU21D;8365;51.030;4.696;2023-06-22T08:33:53;23.72;96.82
16505;HTU21D;8365;51.030;4.696;2023-06-22T08:36:23;23.56;97.09
16505;HTU21D;8365;51.030;4.696;2023-06-22T08:38:56;23.55;97.32
16505;HTU21D;8365;51.030;4.696;2023-06-22T08:41:31;23.55;96.69
16505;HTU21D;8365;51.030;4.696;2023-06-22T08:44:01;23.68;94.77
16505;HTU21D;8365;51.030;4.696;2023-06-22T08:46:35;23.61;93.23
16505;HTU21D;8365;51.030;4.696;2023-06-22T08:49:06;23.42;93.25
16505;HTU21D;8365;51.030;4.696;2023-06-22T08:51:37;23.60;92.19
16505;HTU21D;8365;51.030;4.696;2023-06-22T08:54:07;23.68;91.34
16505;HTU21D;8365;51.030;4.696;2023-06-22T08:56:38;23.72;89.45
16505;HTU21D;8365;51.030;4.696;2023-06-22T08:59:08;23.68;90.34
16505;HTU21D;8365;51.030;4.696;2023-06-22T09:01:39;23.75;89.40
16505;HTU21D;8365;51.030;4.696;2023-06-22T09:04:09;23.77;90.54
16505;HTU21D;8365;51.030;4.696;2023-06-22T09:06:44;23.64;92.56
16505;HTU21D;8365;51.030;4.696;2023-06-22T09:09:16;23.66;92.10
16505;HTU21D;8365;51.030;4.696;2023-06-22T09:11:47;23.85;90.60
16505;HTU21D;8365;51.030;4.696;2023-06-22T09:14:17;23.79;88.95
16505;HTU21D;8365;51.030;4.696;2023-06-22T09:16:48;23.74;91.31
16505;HTU21D;8365;51.030;4.696;2023-06-22T09:19:18;23.71;91.56
16505;HTU21D;8365;51.030;4.696;2023-06-22T09:21:51;23.92;91.56
16505;HTU21D;8365;51.030;4.696;2023-06-22T09:24:22;23.75;92.20
16505;HTU21D;8365;51.030;4.696;2023-06-22T09:26:52;23.77;91.75
16505;HTU21D;8365;51.030;4.696;2023-06-22T09:29:23;23.57;95.71
16505;HTU21D;8365;51.030;4.696;2023-06-22T09:31:56;23.28;98.95
16505;HTU21D;8365;51.030;4.696;2023-06-22T09:34:26;23.80;96.81
16505;HTU21D;8365;51.030;4.696;2023-06-22T09:36:57;23.74;96.19
16505;HTU21D;8365;51.030;4.696;2023-06-22T09:39:30;23.80;99.34
16505;HTU21D;8365;51.030;4.696;2023-06-22T09:42:01;23.84;101.37
16505;HTU21D;8365;51.030;4.696;2023-06-22T09:44:33;23.67;101.68
16505;HTU21D;8365;51.030;4.696;2023-06-22T09:47:04;23.36;103.17
16505;HTU21D;8365;51.030;4.696;2023-06-22T09:49:35;23.32;103.97
16505;HTU21D;8365;51.030;4.696;2023-06-22T09:52:06;23.43;103.62
16505;HTU21D;8365;51.030;4.696;2023-06-22T09:54:36;23.32;105.41
16505;HTU21D;8365;51.030;4.696;2023-06-22T09:57:07;23.06;107.08
16505;HTU21D;8365;51.030;4.696;2023-06-22T09:59:37;22.32;110.27
16505;HTU21D;8365;51.030;4.696;2023-06-22T10:02:10;22.21;114.49
16505;HTU21D;8365;51.030;4.696;2023-06-22T10:04:40;22.32;112.84
16505;HTU21D;8365;51.030;4.696;2023-06-22T10:07:11;22.26;112.06
16505;HTU21D;8365;51.030;4.696;2023-06-22T10:09:43;21.53;115.41
16505;HTU21D;8365;51.030;4.696;2023-06-22T10:12:14;21.60;118.28
16505;HTU21D;8365;51.030;4.696;2023-06-22T10:14:44;21.65;118.99
16505;HTU21D;8365;51.030;4.696;2023-06-22T10:17:15;21.57;118.98
16505;HTU21D;8365;51.030;4.696;2023-06-22T10:19:45;21.43;118.99
16505;HTU21D;8365;51.030;4.696;2023-06-22T10:22:16;21.43;118.99
16505;HTU21D;8365;51.030;4.696;2023-06-22T10:24:46;21.33;118.99
16505;HTU21D;8365;51.030;4.696;2023-06-22T10:27:17;21.09;118.99
16505;HTU21D;8365;51.030;4.696;2023-06-22T10:29:47;21.08;118.99
16505;HTU21D;8365;51.030;4.696;2023-06-22T10:32:18;20.73;118.99
16505;HTU21D;8365;51.030;4.696;2023-06-22T10:34:48;20.65;118.99
16505;HTU21D;8365;51.030;4.696;2023-06-22T10:37:18;20.55;118.99
16505;HTU21D;8365;51.030;4.696;2023-06-22T10:39:49;20.79;118.99
16505;HTU21D;8365;51.030;4.696;2023-06-22T10:42:19;20.80;118.99
16505;HTU21D;8365;51.030;4.696;2023-06-22T10:44:50;20.84;118.99
16505;HTU21D;8365;51.030;4.696;2023-06-22T10:47:20;20.91;118.99
16505;HTU21D;8365;51.030;4.696;2023-06-22T10:49:51;20.96;118.99
16505;HTU21D;8365;51.030;4.696;2023-06-22T10:52:21;20.79;118.99
16505;HTU21D;8365;51.030;4.696;2023-06-22T10:54:52;20.69;118.99
16505;HTU21D;8365;51.030;4.696;2023-06-22T10:57:22;21.01;118.99
16505;HTU21D;8365;51.030;4.696;2023-06-22T10:59:53;20.90;118.99
16505;HTU21D;8365;51.030;4.696;2023-06-22T11:02:23;20.91;118.99
16505;HTU21D;8365;51.030;4.696;2023-06-22T11:04:54;20.72;118.99
16505;HTU21D;8365;51.030;4.696;2023-06-22T11:07:30;20.85;118.99
16505;HTU21D;8365;51.030;4.696;2023-06-22T11:10:01;21.03;118.99
16505;HTU21D;8365;51.030;4.696;2023-06-22T11:12:34;21.28;118.99
16505;HTU21D;8365;51.030;4.696;2023-06-22T11:15:07;21.31;118.99
16505;HTU21D;8365;51.030;4.696;2023-06-22T11:17:38;21.44;118.99
16505;HTU21D;8365;51.030;4.696;2023-06-22T11:20:09;21.61;118.99
16505;HTU21D;8365;51.030;4.696;2023-06-22T11:22:43;21.40;118.99
16505;HTU21D;8365;51.030;4.696;2023-06-22T11:25:13;21.51;118.99
16505;HTU21D;8365;51.030;4.696;2023-06-22T11:27:44;21.75;118.99
16505;HTU21D;8365;51.030;4.696;2023-06-22T11:30:15;21.43;118.99
16505;HTU21D;8365;51.030;4.696;2023-06-22T11:32:46;21.19;118.99
16505;HTU21D;8365;51.030;4.696;2023-06-22T11:35:17;21.40;118.99
16505;HTU21D;8365;51.030;4.696;2023-06-22T11:37:47;21.29;118.99
16505;HTU21D;8365;51.030;4.696;2023-06-22T11:40:18;21.17;118.99
16505;HTU21D;8365;51.030;4.696;2023-06-22T11:42:48;20.96;118.99
16505;HTU21D;8365;51.030;4.696;2023-06-22T11:45:19;21.01;118.99
16505;HTU21D;8365;51.030;4.696;2023-06-22T11:47:51;21.04;118.99
16505;HTU21D;8365;51.030;4.696;2023-06-22T11:50:22;20.99;118.99
16505;HTU21D;8365;51.030;4.696;2023-06-22T11:52:52;21.20;118.99
16505;HTU21D;8365;51.030;4.696;2023-06-22T11:55:23;21.29;118.99
16505;HTU21D;8365;51.030;4.696;2023-06-22T11:57:55;21.53;118.99
16505;HTU21D;8365;51.030;4.696;2023-06-22T12:00:26;21.57;118.99
16505;HTU21D;8365;51.030;4.696;2023-06-22T12:02:58;21.60;118.99
16505;HTU21D;8365;51.030;4.696;2023-06-22T12:05:28;21.61;118.99
16505;HTU21D;8365;51.030;4.696;2023-06-22T12:07:59;21.49;118.99
16505;HTU21D;8365;51.030;4.696;2023-06-22T12:10:30;21.27;118.99
16505;HTU21D;8365;51.030;4.696;2023-06-22T12:13:00;21.05;118.99
16505;HTU21D;8365;51.030;4.696;2023-06-22T12:15:31;21.17;118.99
16505;HTU21D;8365;51.030;4.696;2023-06-22T12:18:01;20.65;118.99
16505;HTU21D;8365;51.030;4.696;2023-06-22T12:20:31;20.78;118.99
16505;HTU21D;8365;51.030;4.696;2023-06-22T12:23:04;20.71;118.99
16505;HTU21D;8365;51.030;4.696;2023-06-22T12:25:35;20.74;118.99
16505;HTU21D;8365;51.030;4.696;2023-06-22T12:28:05;20.39;118.99
16505;HTU21D;8365;51.030;4.696;2023-06-22T12:30:36;20.32;118.99
16505;HTU21D;8365;51.030;4.696;2023-06-22T12:33:06;20.34;118.99
16505;HTU21D;8365;51.030;4.696;2023-06-22T12:35:37;20.45;118.99
16505;HTU21D;8365;51.030;4.696;2023-06-22T12:38:07;20.57;118.99
16505;HTU21D;8365;51.030;4.696;2023-06-22T12:40:38;20.59;118.99
16505;HTU21D;8365;51.030;4.696;2023-06-22T12:43:09;20.68;118.99
16505;HTU21D;8365;51.030;4.696;2023-06-22T12:45:39;20.74;118.99
16505;HTU21D;8365;51.030;4.696;2023-06-22T12:48:10;20.61;118.99
16505;HTU21D;8365;51.030;4.696;2023-06-22T12:50:41;20.63;118.99
16505;HTU21D;8365;51.030;4.696;2023-06-22T12:53:11;20.71;118.99
16505;HTU21D;8365;51.030;4.696;2023-06-22T12:55:42;20.68;118.99
16505;HTU21D;8365;51.030;4.696;2023-06-22T12:58:12;20.70;118.99
16505;HTU21D;8365;51.030;4.696;2023-06-22T13:00:45;20.74;118.99
16505;HTU21D;8365;51.030;4.696;2023-06-22T13:03:15;20.69;118.99
16505;HTU21D;8365;51.030;4.696;2023-06-22T13:05:48;20.56;118.99
16505;HTU21D;8365;51.030;4.696;2023-06-22T13:08:19;20.60;118.99
16505;HTU21D;8365;51.030;4.696;2023-06-22T13:10:49;20.44;118.99
16505;HTU21D;8365;51.030;4.696;2023-06-22T13:13:20;20.32;118.99
16505;HTU21D;8365;51.030;4.696;2023-06-22T13:15:50;20.40;118.99
16505;HTU21D;8365;51.030;4.696;2023-06-22T13:18:22;20.34;118.99
16505;HTU21D;8365;51.030;4.696;2023-06-22T13:20:55;20.29;118.99
16505;HTU21D;8365;51.030;4.696;2023-06-22T13:23:26;20.19;118.99
16505;HTU21D;8365;51.030;4.696;2023-06-22T13:25:57;20.14;118.99
16505;HTU21D;8365;51.030;4.696;2023-06-22T13:28:31;19.92;118.99
16505;HTU21D;8365;51.030;4.696;2023-06-22T13:31:02;20.09;118.99
16505;HTU21D;8365;51.030;4.696;2023-06-22T13:33:32;20.07;118.99
16505;HTU21D;8365;51.030;4.696;2023-06-22T13:36:05;19.98;118.99
16505;HTU21D;8365;51.030;4.696;2023-06-22T13:38:36;19.80;118.99
16505;HTU21D;8365;51.030;4.696;2023-06-22T13:41:08;20.06;118.99
16505;HTU21D;8365;51.030;4.696;2023-06-22T13:43:39;20.04;118.99
16505;HTU21D;8365;51.030;4.696;2023-06-22T13:46:09;19.95;118.99
16505;HTU21D;8365;51.030;4.696;2023-06-22T13:48:40;19.96;118.99
16505;HTU21D;8365;51.030;4.696;2023-06-22T13:51:10;19.81;118.99
16505;HTU21D;8365;51.030;4.696;2023-06-22T13:53:41;19.86;118.99
16505;HTU21D;8365;51.030;4.696;2023-06-22T13:56:11;20.09;118.99
16505;HTU21D;8365;51.030;4.696;2023-06-22T13:58:42;20.06;118.99
16505;HTU21D;8365;51.030;4.696;2023-06-22T14:01:13;19.96;118.99
16505;HTU21D;8365;51.030;4.696;2023-06-22T14:03:44;19.90;118.99
16505;HTU21D;8365;51.030;4.696;2023-06-22T14:06:17;19.76;118.99
16505;HTU21D;8365;51.030;4.696;2023-06-22T14:08:47;19.74;118.99
16505;HTU21D;8365;51.030;4.696;2023-06-22T14:11:18;19.80;118.99
16505;HTU21D;8365;51.030;4.696;2023-06-22T14:13:48;19.87;118.99
16505;HTU21D;8365;51.030;4.696;2023-06-22T14:16:19;19.74;118.99
16505;HTU21D;8365;51.030;4.696;2023-06-22T14:18:49;19.79;118.99
16505;HTU21D;8365;51.030;4.696;2023-06-22T14:21:22;19.82;118.99
16505;HTU21D;8365;51.030;4.696;2023-06-22T14:23:52;19.89;118.99
16505;HTU21D;8365;51.030;4.696;2023-06-22T14:26:23;19.80;118.99
16505;HTU21D;8365;51.030;4.696;2023-06-22T14:28:53;20.14;118.99
16505;HTU21D;8365;51.030;4.696;2023-06-22T14:31:24;20.21;118.99
16505;HTU21D;8365;51.030;4.696;2023-06-22T14:33:54;20.05;118.99
16505;HTU21D;8365;51.030;4.696;2023-06-22T14:36:25;20.22;118.99
16505;HTU21D;8365;51.030;4.696;2023-06-22T14:38:55;20.39;118.99
16505;HTU21D;8365;51.030;4.696;2023-06-22T14:41:32;20.35;118.99
16505;HTU21D;8365;51.030;4.696;2023-06-22T14:44:03;20.39;118.99
16505;HTU21D;8365;51.030;4.696;2023-06-22T14:46:33;20.46;118.99
16505;HTU21D;8365;51.030;4.696;2023-06-22T14:49:04;20.63;118.99
16505;HTU21D;8365;51.030;4.696;2023-06-22T14:51:36;20.69;118.99
16505;HTU21D;8365;51.030;4.696;2023-06-22T14:54:09;20.68;118.99
16505;HTU21D;8365;51.030;4.696;2023-06-22T14:56:40;20.81;118.99
16505;HTU21D;8365;51.030;4.696;2023-06-22T14:59:10;20.76;118.99
16505;HTU21D;8365;51.030;4.696;2023-06-22T15:01:41;20.80;118.99
16505;HTU21D;8365;51.030;4.696;2023-06-22T15:04:15;20.62;118.99
16505;HTU21D;8365;51.030;4.696;2023-06-22T15:06:45;20.71;118.99
16505;HTU21D;8365;51.030;4.696;2023-06-22T15:09:16;20.84;118.99
16505;HTU21D;8365;51.030;4.696;2023-06-22T15:11:46;20.85;118.99
16505;HTU21D;8365;51.030;4.696;2023-06-22T15:14:17;20.90;118.99
16505;HTU21D;8365;51.030;4.696;2023-06-22T15:16:49;20.94;118.99
16505;HTU21D;8365;51.030;4.696;2023-06-22T15:19:20;20.93;118.99
16505;HTU21D;8365;51.030;4.696;2023-06-22T15:21:50;20.92;118.99
16505;HTU21D;8365;51.030;4.696;2023-06-22T15:24:21;21.10;118.99
16505;HTU21D;8365;51.030;4.696;2023-06-22T15:26:51;21.07;118.99
16505;HTU21D;8365;51.030;4.696;2023-06-22T15:29:21;21.08;118.99
16505;HTU21D;8365;51.030;4.696;2023-06-22T15:31:52;21.00;118.99
16505;HTU21D;8365;51.030;4.696;2023-06-22T15:34:23;21.17;118.99
16505;HTU21D;8365;51.030;4.696;2023-06-22T15:36:53;21.23;118.99
16505;HTU21D;8365;51.030;4.696;2023-06-22T15:39:24;21.02;118.99
16505;HTU21D;8365;51.030;4.696;2023-06-22T15:41:56;20.84;118.99
16505;HTU21D;8365;51.030;4.696;2023-06-22T15:44:27;20.74;118.99
16505;HTU21D;8365;51.030;4.696;2023-06-22T15:46:57;20.63;118.99
16505;HTU21D;8365;51.030;4.696;2023-06-22T15:49:28;20.76;118.99
16505;HTU21D;8365;51.030;4.696;2023-06-22T15:51:58;20.78;118.99
16505;HTU21D;8365;51.030;4.696;2023-06-22T15:54:29;20.80;118.99
16505;HTU21D;8365;51.030;4.696;2023-06-22T15:56:59;20.93;118.99